Terminal Aerodrome Forecast
Issued by NWS

Home | Current Version | Previous Version | Text Only | Print | Product List | Glossary Off
Versions: 1 2 3 4 5 6 7 8 9 10 11 12 13 14 15 16

000
FTUS43 KGLD 171739 AAB
TAFMCK
TAF AMD
KMCK 171739Z 1718/1818 30014KT P6SM SKC
     FM172300 13007KT P6SM SKC
     FM180500 18014KT P6SM SCT250 WS010/20045KT
     FM181400 20011KT P6SM FEW250=

USA.gov is the U.S. government's official web portal to all federal, state and local government web resources and services.